Time;durP1;ratioP1;P1;durP2;ratioP2;P2;SDS_P1;SDS_P2;PMS_P1;PMS_P2;Temp;Humidity;BMP_temperature;BMP_pressure;BME280_temperature;BME280_humidity;BME280_pressure;Samples;Min_cycle;Max_cycle;Signal;HPM_P1;HPM_P2
2021/06/07 00:01:25;;;;;;;4.40;3.70;;;;;;;;;;4966659;28;20237;-73
2021/06/07 00:03:51;;;;;;;5.80;4.20;;;;;;;;;;4973525;28;20317;-73
2021/06/07 00:06:18;;;;;;;4.37;3.53;;;;;;;;;;4975418;28;20202;-73
2021/06/07 00:08:47;;;;;;;7.50;4.13;;;;;;;;;;4975218;28;20758;-73
2021/06/07 00:11:14;;;;;;;5.37;3.60;;;;;;;;;;4971450;28;20294;-73
2021/06/07 00:13:43;;;;;;;7.27;3.93;;;;;;;;;;4968791;28;20241;-73
2021/06/07 00:16:10;;;;;;;6.27;4.00;;;;;;;;;;4974812;28;20213;-73
2021/06/07 00:18:37;;;;;;;6.53;4.37;;;;;;;;;;4957818;28;20230;-73
2021/06/07 00:21:07;;;;;;;5.03;4.10;;;;;;;;;;4956409;29;20292;-73
2021/06/07 00:23:34;;;;;;;4.73;4.00;;;;;;;;;;4956024;29;20569;-73
2021/06/07 00:26:02;;;;;;;5.57;4.20;;;;;;;;;;4958868;28;20310;-73
2021/06/07 00:28:29;;;;;;;6.50;4.70;;;;;;;;;;4975282;28;20256;-73
2021/06/07 00:30:56;;;;;;;6.93;4.70;;;;;;;;;;4964114;28;20359;-73
2021/06/07 00:33:22;;;;;;;7.20;5.10;;;;;;;;;;4975001;28;20289;-73
2021/06/07 00:35:49;;;;;;;6.80;4.90;;;;;;;;;;4969550;28;20285;-73
2021/06/07 00:38:16;;;;;;;6.20;4.90;;;;;;;;;;4968577;28;20205;-73
2021/06/07 00:40:43;;;;;;;7.33;4.97;;;;;;;;;;4974757;28;20237;-73
2021/06/07 00:43:11;;;;;;;5.33;4.60;;;;;;;;;;4963571;28;20265;-73
2021/06/07 00:45:40;;;;;;;7.67;4.57;;;;;;;;;;4972487;28;20239;-73
2021/06/07 00:48:07;;;;;;;7.47;4.07;;;;;;;;;;4965971;28;20321;-73
2021/06/07 00:50:38;;;;;;;6.60;4.20;;;;;;;;;;4974808;28;20253;-73
2021/06/07 00:53:06;;;;;;;5.13;4.47;;;;;;;;;;4974580;28;20248;-73
2021/06/07 00:55:34;;;;;;;5.37;4.70;;;;;;;;;;4973694;28;20202;-73
2021/06/07 00:58:02;;;;;;;8.73;4.70;;;;;;;;;;4974697;28;20254;-73
2021/06/07 01:00:30;;;;;;;5.70;4.47;;;;;;;;;;4970515;28;20216;-72
2021/06/07 01:02:58;;;;;;;7.80;4.67;;;;;;;;;;4974050;28;20218;-73
2021/06/07 01:05:25;;;;;;;6.67;4.43;;;;;;;;;;4963475;28;20297;-73
2021/06/07 01:07:52;;;;;;;4.57;3.73;;;;;;;;;;4955715;29;20295;-73
2021/06/07 01:10:19;;;;;;;5.50;3.87;;;;;;;;;;4955601;29;20238;-73
2021/06/07 01:12:46;;;;;;;5.30;3.90;;;;;;;;;;4971120;28;20290;-73
2021/06/07 01:15:14;;;;;;;5.53;3.53;;;;;;;;;;4963906;28;20313;-73
2021/06/07 01:17:43;;;;;;;5.87;4.00;;;;;;;;;;4957313;28;20292;-73
2021/06/07 01:20:11;;;;;;;5.13;4.00;;;;;;;;;;4973767;28;20297;-73
2021/06/07 01:22:39;;;;;;;6.27;4.23;;;;;;;;;;4974481;28;20655;-72
2021/06/07 01:25:09;;;;;;;6.40;4.27;;;;;;;;;;4956074;28;20240;-73
2021/06/07 01:27:37;;;;;;;5.57;3.60;;;;;;;;;;4968556;28;20217;-73
2021/06/07 01:30:06;;;;;;;4.70;4.10;;;;;;;;;;4962456;28;20308;-73
2021/06/07 01:32:33;;;;;;;5.93;4.43;;;;;;;;;;4961148;28;20223;-73
2021/06/07 01:35:00;;;;;;;8.97;6.13;;;;;;;;;;4973336;28;20768;-73
2021/06/07 01:37:27;;;;;;;8.43;6.20;;;;;;;;;;4973447;28;20588;-73
2021/06/07 01:39:55;;;;;;;8.23;6.60;;;;;;;;;;4973990;28;20686;-73
2021/06/07 01:42:21;;;;;;;9.83;6.43;;;;;;;;;;4959322;28;20288;-73
2021/06/07 01:44:48;;;;;;;8.40;6.17;;;;;;;;;;4959937;28;20212;-73
2021/06/07 01:47:15;;;;;;;9.30;6.07;;;;;;;;;;4964698;28;20293;-73
2021/06/07 01:49:42;;;;;;;8.07;6.47;;;;;;;;;;4970522;28;20328;-72
2021/06/07 01:52:09;;;;;;;10.57;6.10;;;;;;;;;;4973248;28;20251;-73
2021/06/07 01:54:36;;;;;;;8.37;6.20;;;;;;;;;;4970039;28;20573;-72
2021/06/07 01:57:05;;;;;;;9.93;6.20;;;;;;;;;;4954581;29;20237;-73
2021/06/07 01:59:32;;;;;;;11.40;6.17;;;;;;;;;;4954572;29;20649;-73
2021/06/07 02:01:58;;;;;;;9.33;6.80;;;;;;;;;;4960812;28;20401;-73
2021/06/07 02:04:25;;;;;;;12.00;7.07;;;;;;;;;;4973598;28;20316;-73
2021/06/07 02:06:52;;;;;;;9.10;6.37;;;;;;;;;;4973983;28;20324;-73
2021/06/07 02:09:19;;;;;;;10.17;6.80;;;;;;;;;;4973413;28;20232;-73
2021/06/07 02:11:45;;;;;;;8.27;5.90;;;;;;;;;;4973576;28;20287;-72
2021/06/07 02:14:13;;;;;;;6.57;5.20;;;;;;;;;;4973534;28;20298;-73
2021/06/07 02:16:42;;;;;;;6.93;4.63;;;;;;;;;;4972657;28;20844;-73
2021/06/07 02:19:09;;;;;;;7.67;5.33;;;;;;;;;;4973133;28;20237;-72
2021/06/07 02:21:37;;;;;;;6.63;5.00;;;;;;;;;;4957701;28;20267;-72
2021/06/07 02:24:05;;;;;;;6.43;4.80;;;;;;;;;;4973072;28;20304;-73
2021/06/07 02:26:33;;;;;;;7.50;5.27;;;;;;;;;;4973022;28;20297;-73
2021/06/07 02:29:00;;;;;;;7.27;5.20;;;;;;;;;;4967417;28;20235;-73
2021/06/07 02:31:30;;;;;;;7.50;4.80;;;;;;;;;;4956244;28;20291;-73
2021/06/07 02:33:58;;;;;;;5.93;4.80;;;;;;;;;;4973381;28;20733;-73
2021/06/07 02:36:26;;;;;;;7.53;5.33;;;;;;;;;;4973241;28;20746;-73
2021/06/07 02:38:53;;;;;;;6.33;5.13;;;;;;;;;;4973371;28;20278;-73
2021/06/07 02:41:20;;;;;;;8.87;5.03;;;;;;;;;;4959770;28;20211;-72
2021/06/07 02:43:47;;;;;;;8.50;5.60;;;;;;;;;;4970943;28;20312;-72
2021/06/07 02:46:15;;;;;;;7.87;5.47;;;;;;;;;;4955870;28;20210;-73
2021/06/07 02:48:43;;;;;;;8.37;6.07;;;;;;;;;;4968408;28;20329;-72
2021/06/07 02:51:10;;;;;;;7.97;6.13;;;;;;;;;;4973044;28;20215;-73
2021/06/07 02:53:38;;;;;;;7.90;6.17;;;;;;;;;;4972802;28;20286;-72
2021/06/07 02:56:05;;;;;;;9.63;5.63;;;;;;;;;;4972902;28;20231;-73
2021/06/07 02:58:32;;;;;;;8.03;6.03;;;;;;;;;;4972683;28;20724;-73
2021/06/07 03:01:00;;;;;;;9.30;6.20;;;;;;;;;;4972931;28;20327;-72
2021/06/07 03:03:28;;;;;;;7.80;5.80;;;;;;;;;;4973007;28;20239;-72
2021/06/07 03:05:58;;;;;;;8.57;6.67;;;;;;;;;;4954079;28;20323;-73
2021/06/07 03:08:25;;;;;;;9.93;6.50;;;;;;;;;;4953465;29;20303;-72
2021/06/07 03:10:53;;;;;;;8.70;6.60;;;;;;;;;;4953135;29;20248;-73
2021/06/07 03:13:20;;;;;;;8.57;6.93;;;;;;;;;;4968790;28;20234;-73
2021/06/07 03:15:48;;;;;;;10.77;6.43;;;;;;;;;;4971414;28;20239;-73
2021/06/07 03:18:15;;;;;;;9.57;6.87;;;;;;;;;;4953340;29;20287;-73
2021/06/07 03:20:42;;;;;;;10.83;6.77;;;;;;;;;;4953427;29;20300;-72
2021/06/07 03:23:12;;;;;;;6.43;5.83;;;;;;;;;;4953461;29;20317;-72
2021/06/07 03:25:39;;;;;;;7.77;5.50;;;;;;;;;;4952939;28;20236;-73
2021/06/07 03:28:06;;;;;;;7.37;5.37;;;;;;;;;;4953616;29;20295;-72
2021/06/07 03:30:33;;;;;;;8.30;5.70;;;;;;;;;;4953215;28;20758;-73
2021/06/07 03:32:59;;;;;;;8.47;5.40;;;;;;;;;;4953476;29;20283;-73
2021/06/07 03:35:26;;;;;;;8.07;5.90;;;;;;;;;;4953248;29;20667;-72
2021/06/07 03:37:53;;;;;;;9.43;5.97;;;;;;;;;;4953609;29;20250;-73
2021/06/07 03:40:22;;;;;;;6.57;5.30;;;;;;;;;;4952975;29;20291;-73
2021/06/07 03:42:49;;;;;;;9.23;5.57;;;;;;;;;;4958469;28;20223;-73
2021/06/07 03:45:16;;;;;;;6.93;5.63;;;;;;;;;;4971966;28;20301;-73
2021/06/07 03:47:44;;;;;;;9.50;5.80;;;;;;;;;;4972246;28;20199;-73
2021/06/07 03:50:12;;;;;;;7.70;5.83;;;;;;;;;;4972065;28;20246;-72
2021/06/07 03:52:39;;;;;;;6.87;5.80;;;;;;;;;;4972257;28;20700;-73
2021/06/07 03:55:08;;;;;;;7.83;5.77;;;;;;;;;;4972180;28;20285;-72
2021/06/07 03:57:36;;;;;;;9.23;5.93;;;;;;;;;;4966754;28;20298;-72
2021/06/07 04:00:03;;;;;;;8.40;6.07;;;;;;;;;;4958739;28;20341;-73
2021/06/07 04:02:30;;;;;;;8.10;5.97;;;;;;;;;;4972398;28;20310;-73
2021/06/07 04:04:57;;;;;;;9.30;6.10;;;;;;;;;;4971583;28;20744;-73
2021/06/07 04:07:23;;;;;;;8.50;6.57;;;;;;;;;;4952945;29;20261;-72
2021/06/07 04:09:50;;;;;;;11.07;6.63;;;;;;;;;;4953514;28;20295;-72
2021/06/07 04:12:17;;;;;;;8.70;6.17;;;;;;;;;;4967979;28;20241;-72
2021/06/07 04:14:45;;;;;;;9.93;6.30;;;;;;;;;;4959679;28;20615;-73
2021/06/07 04:17:12;;;;;;;10.47;6.77;;;;;;;;;;4975780;28;20238;-72
2021/06/07 04:19:38;;;;;;;7.47;6.77;;;;;;;;;;4959659;28;20297;-76
2021/06/07 04:22:06;;;;;;;10.87;7.07;;;;;;;;;;4964612;28;20598;-77
2021/06/07 04:24:33;;;;;;;9.73;6.37;;;;;;;;;;4975620;28;20226;-76
2021/06/07 04:26:59;;;;;;;8.00;6.33;;;;;;;;;;4969927;28;20290;-77
2021/06/07 04:29:26;;;;;;;8.63;6.37;;;;;;;;;;4956554;29;20335;-77
2021/06/07 04:31:54;;;;;;;11.20;6.13;;;;;;;;;;4967155;28;20289;-77
2021/06/07 04:34:21;;;;;;;8.57;6.60;;;;;;;;;;4975909;28;20230;-77
2021/06/07 04:36:48;;;;;;;6.60;5.50;;;;;;;;;;4975675;28;20252;-76
2021/06/07 04:39:14;;;;;;;9.23;5.33;;;;;;;;;;4975032;28;20369;-76
2021/06/07 04:41:41;;;;;;;8.47;5.73;;;;;;;;;;4974411;28;20226;-76
2021/06/07 04:44:08;;;;;;;6.97;5.73;;;;;;;;;;4975782;28;20262;-77
2021/06/07 04:46:35;;;;;;;9.07;5.97;;;;;;;;;;4965080;28;20234;-76
2021/06/07 04:49:03;;;;;;;11.70;6.03;;;;;;;;;;4956157;29;20728;-76
2021/06/07 04:51:30;;;;;;;9.03;6.73;;;;;;;;;;4968642;28;20704;-76
2021/06/07 04:53:56;;;;;;;9.03;6.70;;;;;;;;;;4964697;28;20222;-76
2021/06/07 04:56:23;;;;;;;10.10;6.27;;;;;;;;;;4967158;28;20317;-76
2021/06/07 04:58:50;;;;;;;12.50;6.77;;;;;;;;;;4968446;28;20302;-77
2021/06/07 05:01:17;;;;;;;9.20;6.83;;;;;;;;;;4974942;28;20620;-77
2021/06/07 05:03:44;;;;;;;11.70;7.00;;;;;;;;;;4975348;28;20322;-76
2021/06/07 05:06:12;;;;;;;13.73;7.07;;;;;;;;;;4973040;28;20231;-80
2021/06/07 05:08:39;;;;;;;11.10;7.10;;;;;;;;;;4964143;28;20667;-79
2021/06/07 05:11:05;;;;;;;10.13;7.10;;;;;;;;;;4963768;28;20678;-79
2021/06/07 05:13:33;;;;;;;9.90;7.30;;;;;;;;;;4963372;28;20295;-80
2021/06/07 05:15:59;;;;;;;8.93;6.77;;;;;;;;;;4962683;28;20301;-80
2021/06/07 05:18:26;;;;;;;7.37;6.00;;;;;;;;;;4963416;28;20344;-80
2021/06/07 05:20:53;;;;;;;8.63;5.93;;;;;;;;;;4973546;28;20282;-80
2021/06/07 05:23:21;;;;;;;8.10;5.73;;;;;;;;;;4971019;28;20799;-79
2021/06/07 05:25:48;;;;;;;6.90;6.17;;;;;;;;;;4966049;28;20635;-78
2021/06/07 05:28:15;;;;;;;7.03;5.73;;;;;;;;;;4962163;28;20678;-80
2021/06/07 05:30:44;;;;;;;9.40;5.97;;;;;;;;;;4964630;28;20244;-78
2021/06/07 05:33:11;;;;;;;6.70;5.23;;;;;;;;;;4969170;28;20310;-79
2021/06/07 05:35:41;;;;;;;6.40;4.77;;;;;;;;;;4972609;28;20252;-79
2021/06/07 05:38:08;;;;;;;5.97;5.03;;;;;;;;;;4963198;28;20206;-80
2021/06/07 05:40:37;;;;;;;6.27;4.97;;;;;;;;;;4965297;28;20737;-81
2021/06/07 05:43:04;;;;;;;5.87;4.97;;;;;;;;;;4971232;28;20222;-80
2021/06/07 05:45:40;;;;;;;5.23;4.57;;;;;;;;;;4959632;28;20293;-80
2021/06/07 05:48:07;;;;;;;6.20;4.67;;;;;;;;;;4958175;28;20817;-80
2021/06/07 05:50:35;;;;;;;5.23;4.63;;;;;;;;;;4973619;28;20289;-78
2021/06/07 05:53:02;;;;;;;6.57;4.53;;;;;;;;;;4974577;28;20226;-81
2021/06/07 05:55:30;;;;;;;5.03;4.30;;;;;;;;;;4976132;28;20238;-82
2021/06/07 05:58:00;;;;;;;5.07;4.23;;;;;;;;;;4961400;28;20290;-81
2021/06/07 06:00:28;;;;;;;5.00;4.50;;;;;;;;;;4954877;29;20699;-82
2021/06/07 06:02:55;;;;;;;5.33;4.07;;;;;;;;;;4955073;29;20680;-81
2021/06/07 06:05:22;;;;;;;4.90;4.40;;;;;;;;;;4954746;29;20266;-81
2021/06/07 06:07:50;;;;;;;4.25;3.85;;;;;;;;;;4955391;29;20294;-81
2021/06/07 06:10:18;;;;;;;5.95;4.18;;;;;;;;;;4955359;28;20673;-81
2021/06/07 06:12:45;;;;;;;6.03;4.10;;;;;;;;;;4981022;28;20229;-81
2021/06/07 06:15:15;;;;;;;4.65;3.90;;;;;;;;;;4987619;28;20242;-81
2021/06/07 06:17:41;;;;;;;6.57;3.90;;;;;;;;;;4967763;28;20233;-81
2021/06/07 06:20:09;;;;;;;4.40;4.00;;;;;;;;;;4956945;28;20285;-82
2021/06/07 06:22:36;;;;;;;3.75;3.45;;;;;;;;;;4972999;28;20278;-81
2021/06/07 06:25:04;;;;;;;4.20;3.55;;;;;;;;;;4969280;28;20207;-82
2021/06/07 06:27:30;;;;;;;3.53;3.22;;;;;;;;;;4959020;28;20285;-82
2021/06/07 06:29:57;;;;;;;4.57;3.50;;;;;;;;;;4956438;28;20207;-82
2021/06/07 06:32:26;;;;;;;4.43;3.38;;;;;;;;;;4953800;28;20286;-82
2021/06/07 06:34:53;;;;;;;3.97;3.58;;;;;;;;;;4953974;28;20699;-81
2021/06/07 06:37:19;;;;;;;5.07;3.67;;;;;;;;;;4954222;28;20210;-82
2021/06/07 06:39:46;;;;;;;3.97;3.58;;;;;;;;;;4966785;28;20331;-81
2021/06/07 06:42:13;;;;;;;3.38;3.08;;;;;;;;;;4962886;28;20327;-82
2021/06/07 06:44:40;;;;;;;3.65;3.35;;;;;;;;;;4969810;28;20250;-82
2021/06/07 06:47:07;;;;;;;3.75;3.40;;;;;;;;;;4971454;28;20237;-81
2021/06/07 06:49:36;;;;;;;4.57;4.10;;;;;;;;;;4962260;28;20806;-82
2021/06/07 06:52:03;;;;;;;4.93;3.65;;;;;;;;;;4968572;28;20712;-81
2021/06/07 06:54:30;;;;;;;4.00;3.70;;;;;;;;;;4969050;28;20249;-81
2021/06/07 06:56:57;;;;;;;5.95;3.85;;;;;;;;;;4964321;28;20259;-82
2021/06/07 06:59:24;;;;;;;3.63;3.10;;;;;;;;;;4961915;28;20285;-81
2021/06/07 07:01:51;;;;;;;3.90;3.28;;;;;;;;;;4971817;28;20640;-81
2021/06/07 07:04:17;;;;;;;3.50;3.20;;;;;;;;;;4961283;28;20313;-81
2021/06/07 07:06:45;;;;;;;3.50;3.20;;;;;;;;;;4965021;28;20285;-81
2021/06/07 07:09:12;;;;;;;3.50;3.20;;;;;;;;;;4968466;28;20237;-81
2021/06/07 07:11:39;;;;;;;4.47;3.25;;;;;;;;;;4962723;28;20207;-81
2021/06/07 07:14:05;;;;;;;3.45;3.15;;;;;;;;;;4956861;28;20245;-81
2021/06/07 07:16:32;;;;;;;4.22;3.08;;;;;;;;;;4964796;28;20285;-81
2021/06/07 07:18:59;;;;;;;3.63;3.00;;;;;;;;;;4953876;28;20199;-81
2021/06/07 07:21:26;;;;;;;2.80;2.60;;;;;;;;;;4967466;28;20228;-82
2021/06/07 07:23:54;;;;;;;3.10;2.80;;;;;;;;;;4961500;28;20261;-82
2021/06/07 07:26:21;;;;;;;3.20;2.90;;;;;;;;;;4970583;28;20289;-82
2021/06/07 07:28:48;;;;;;;3.30;3.00;;;;;;;;;;4955388;28;20632;-81
2021/06/07 07:31:14;;;;;;;3.40;3.10;;;;;;;;;;4965917;28;20198;-81
2021/06/07 07:33:45;;;;;;;3.03;2.60;;;;;;;;;;4971185;28;20289;-81
2021/06/07 07:36:12;;;;;;;3.55;2.60;;;;;;;;;;4953458;28;20689;-82
2021/06/07 07:38:39;;;;;;;4.35;2.63;;;;;;;;;;4968977;28;20235;-82
2021/06/07 07:41:07;;;;;;;4.07;2.45;;;;;;;;;;4961014;28;20234;-82
2021/06/07 07:43:34;;;;;;;3.92;2.85;;;;;;;;;;4971720;28;20253;-82
2021/06/07 07:46:01;;;;;;;2.92;2.60;;;;;;;;;;4961737;28;20235;-81
2021/06/07 07:48:27;;;;;;;2.80;2.50;;;;;;;;;;4962142;28;20313;-81
2021/06/07 07:50:54;;;;;;;2.20;2.00;;;;;;;;;;4960961;28;20213;-82
2021/06/07 07:53:21;;;;;;;2.22;2.03;;;;;;;;;;4970933;28;20242;-81
2021/06/07 07:55:50;;;;;;;2.30;1.90;;;;;;;;;;4968443;28;20209;-82
2021/06/07 07:58:18;;;;;;;2.53;1.90;;;;;;;;;;4961799;28;20202;-82
2021/06/07 08:00:47;;;;;;;1.65;1.52;;;;;;;;;;4968069;28;20282;-82
2021/06/07 08:03:14;;;;;;;1.92;1.60;;;;;;;;;;4960242;28;20843;-81
2021/06/07 08:05:40;;;;;;;2.42;1.48;;;;;;;;;;4976254;28;20277;-82
2021/06/07 08:08:07;;;;;;;3.88;1.35;;;;;;;;;;4967667;28;20207;-81
2021/06/07 08:10:34;;;;;;;1.77;1.50;;;;;;;;;;4975761;28;20241;-81
2021/06/07 08:13:01;;;;;;;1.60;1.30;;;;;;;;;;4959699;28;20294;-81
2021/06/07 08:15:29;;;;;;;2.50;1.50;;;;;;;;;;4969447;28;20206;-81
2021/06/07 08:17:56;;;;;;;2.03;1.20;;;;;;;;;;4957510;29;20262;-81
2021/06/07 08:20:23;;;;;;;1.85;1.20;;;;;;;;;;4970280;28;20286;-81
2021/06/07 08:22:51;;;;;;;2.15;1.33;;;;;;;;;;4971326;28;20214;-82
2021/06/07 08:25:18;;;;;;;1.65;1.40;;;;;;;;;;4966693;28;20282;-81
2021/06/07 08:27:45;;;;;;;1.52;1.30;;;;;;;;;;4957802;28;20247;-81
2021/06/07 08:30:13;;;;;;;1.35;1.10;;;;;;;;;;4962555;28;20207;-81
2021/06/07 08:32:41;;;;;;;1.58;1.35;;;;;;;;;;4961163;28;20625;-81
2021/06/07 08:35:10;;;;;;;1.58;1.20;;;;;;;;;;4961120;28;20769;-81
2021/06/07 08:37:37;;;;;;;2.05;1.00;;;;;;;;;;4962470;28;20270;-81
2021/06/07 08:40:05;;;;;;;2.58;1.50;;;;;;;;;;4973214;28;20655;-82
2021/06/07 08:42:32;;;;;;;2.35;0.90;;;;;;;;;;4967378;28;20235;-81
2021/06/07 08:44:59;;;;;;;1.90;1.23;;;;;;;;;;4974764;28;20222;-82
2021/06/07 08:47:26;;;;;;;5.20;1.20;;;;;;;;;;4974178;28;20253;-81
2021/06/07 08:49:54;;;;;;;1.40;1.00;;;;;;;;;;4967692;28;20361;-81
2021/06/07 08:52:21;;;;;;;1.55;1.00;;;;;;;;;;4971647;28;20340;-82
2021/06/07 08:54:48;;;;;;;2.33;1.20;;;;;;;;;;4963840;28;20206;-82
2021/06/07 08:57:15;;;;;;;1.30;0.95;;;;;;;;;;4956130;28;20713;-81
2021/06/07 08:59:41;;;;;;;2.90;1.10;;;;;;;;;;4959872;28;20236;-81
2021/06/07 09:02:08;;;;;;;1.90;1.00;;;;;;;;;;4964988;28;20226;-81
2021/06/07 09:04:46;;;;;;;1.55;1.20;;;;;;;;;;4968414;28;20313;-82
2021/06/07 09:07:14;;;;;;;1.08;0.90;;;;;;;;;;4961322;28;20643;-82
2021/06/07 09:09:42;;;;;;;1.63;1.10;;;;;;;;;;4964953;28;20286;-82
2021/06/07 09:12:13;;;;;;;0.95;0.80;;;;;;;;;;4967504;28;20206;-82
2021/06/07 09:14:48;;;;;;;1.50;1.10;;;;;;;;;;4964005;28;20203;-82
2021/06/07 09:17:16;;;;;;;2.28;1.10;;;;;;;;;;4971283;28;20285;-82
2021/06/07 09:19:43;;;;;;;2.33;1.10;;;;;;;;;;4961279;28;20202;-82
2021/06/07 09:22:25;;;;;;;1.55;1.00;;;;;;;;;;4964429;28;20241;-82
2021/06/07 09:25:09;;;;;;;1.70;1.10;;;;;;;;;;4960523;28;20274;-82
2021/06/07 09:27:37;;;;;;;4.78;1.08;;;;;;;;;;4964962;28;20294;-82
2021/06/07 09:30:23;;;;;;;1.35;1.02;;;;;;;;;;4964164;28;20265;-82
2021/06/07 09:32:50;;;;;;;1.27;1.17;;;;;;;;;;4957359;28;20199;-82
2021/06/07 09:35:16;;;;;;;1.42;1.15;;;;;;;;;;4964221;28;20214;-82
2021/06/07 09:38:03;;;;;;;1.90;1.17;;;;;;;;;;4968065;28;20234;-82
2021/06/07 09:40:30;;;;;;;1.98;1.10;;;;;;;;;;4960267;28;20210;-82
2021/06/07 09:42:57;;;;;;;1.40;1.20;;;;;;;;;;4966037;28;20293;-82
2021/06/07 09:45:44;;;;;;;1.80;1.20;;;;;;;;;;4962382;28;20313;-82
2021/06/07 09:48:13;;;;;;;3.05;1.10;;;;;;;;;;4956588;28;20278;-82
2021/06/07 09:50:53;;;;;;;2.15;1.02;;;;;;;;;;4974085;28;20226;-82
2021/06/07 09:53:34;;;;;;;1.75;1.20;;;;;;;;;;4975018;28;20329;-82
2021/06/07 09:56:03;;;;;;;2.92;1.30;;;;;;;;;;4965780;28;20392;-82
2021/06/07 09:58:31;;;;;;;1.10;1.00;;;;;;;;;;4962948;28;20235;-82
2021/06/07 10:00:57;;;;;;;1.65;1.10;;;;;;;;;;4962418;28;20230;-82
2021/06/07 10:03:25;;;;;;;2.22;1.10;;;;;;;;;;4960733;28;20285;-82
2021/06/07 10:05:52;;;;;;;1.95;1.05;;;;;;;;;;4962925;28;20706;-82
2021/06/07 10:08:22;;;;;;;1.85;1.05;;;;;;;;;;4970375;28;20241;-82
2021/06/07 10:10:49;;;;;;;1.85;1.08;;;;;;;;;;4974601;28;20198;-82
2021/06/07 10:13:17;;;;;;;1.63;1.20;;;;;;;;;;4966253;28;20280;-82
2021/06/07 10:15:45;;;;;;;1.55;1.30;;;;;;;;;;4964948;28;20234;-82
2021/06/07 10:18:12;;;;;;;2.08;1.25;;;;;;;;;;4969873;28;20673;-82
2021/06/07 10:20:52;;;;;;;1.55;1.00;;;;;;;;;;4973209;28;20622;-82
2021/06/07 10:23:20;;;;;;;1.20;1.10;;;;;;;;;;4973227;28;20209;-82
2021/06/07 10:25:47;;;;;;;1.50;1.05;;;;;;;;;;4962164;28;20696;-81
2021/06/07 10:28:14;;;;;;;1.48;1.08;;;;;;;;;;4970906;28;20252;-82
2021/06/07 10:30:44;;;;;;;1.13;1.00;;;;;;;;;;4972676;28;20261;-82
2021/06/07 10:33:30;;;;;;;1.65;1.00;;;;;;;;;;4961665;28;20286;-82
2021/06/07 10:35:58;;;;;;;1.65;1.08;;;;;;;;;;4956476;28;20239;-82
2021/06/07 10:38:31;;;;;;;1.13;1.00;;;;;;;;;;4968570;28;20281;-82
2021/06/07 10:41:13;;;;;;;1.42;1.00;;;;;;;;;;4964636;28;20207;-82
2021/06/07 10:43:43;;;;;;;2.42;1.25;;;;;;;;;;4962326;28;20669;-82
2021/06/07 10:46:22;;;;;;;1.55;1.00;;;;;;;;;;4977205;28;20206;-81
2021/06/07 10:48:51;;;;;;;1.40;1.00;;;;;;;;;;4980606;28;20317;-81
2021/06/07 10:51:18;;;;;;;1.60;1.10;;;;;;;;;;4964593;28;20689;-81
2021/06/07 10:53:44;;;;;;;1.40;1.05;;;;;;;;;;4955843;28;20677;-80
2021/06/07 10:56:12;;;;;;;1.05;0.90;;;;;;;;;;4963021;28;20230;-81
2021/06/07 10:58:50;;;;;;;1.25;0.90;;;;;;;;;;4962814;28;20285;-80
2021/06/07 11:01:17;;;;;;;2.10;1.05;;;;;;;;;;4964627;28;20660;-80
2021/06/07 11:03:55;;;;;;;1.33;0.80;;;;;;;;;;4967175;28;20225;-80
2021/06/07 11:06:21;;;;;;;0.77;0.75;;;;;;;;;;4960512;28;20240;-80
2021/06/07 11:09:01;;;;;;;1.30;1.08;;;;;;;;;;4964582;28;20290;-81
2021/06/07 11:11:42;;;;;;;1.08;0.80;;;;;;;;;;4968294;28;20198;-81
2021/06/07 11:14:08;;;;;;;0.80;0.80;;;;;;;;;;4959919;28;20214;-81
2021/06/07 11:16:37;;;;;;;1.77;1.00;;;;;;;;;;4972958;28;20723;-81
2021/06/07 11:19:06;;;;;;;1.23;0.82;;;;;;;;;;4971246;28;20290;-80
2021/06/07 11:21:33;;;;;;;1.95;0.80;;;;;;;;;;4973366;28;20543;-80
2021/06/07 11:24:00;;;;;;;2.05;1.10;;;;;;;;;;4958317;28;20297;-80
2021/06/07 11:26:37;;;;;;;1.95;0.98;;;;;;;;;;4966577;28;20234;-80
2021/06/07 11:29:07;;;;;;;1.52;0.98;;;;;;;;;;4965808;28;20198;-80
2021/06/07 11:31:51;;;;;;;1.38;1.00;;;;;;;;;;4968590;28;20202;-80
2021/06/07 11:34:42;;;;;;;1.00;0.93;;;;;;;;;;4956420;28;20199;-80
2021/06/07 11:37:10;;;;;;;1.65;1.00;;;;;;;;;;4963250;28;20237;-80
2021/06/07 11:39:48;;;;;;;1.92;1.20;;;;;;;;;;4957179;28;20282;-79
2021/06/07 11:42:16;;;;;;;1.40;1.00;;;;;;;;;;4963986;28;20341;-80
2021/06/07 11:44:51;;;;;;;2.35;1.10;;;;;;;;;;4959296;28;20681;-80
2021/06/07 11:47:19;;;;;;;1.85;0.90;;;;;;;;;;4944790;28;20214;-80
2021/06/07 11:50:05;;;;;;;1.33;0.98;;;;;;;;;;4955176;28;20321;-80
2021/06/07 11:52:53;;;;;;;1.17;0.90;;;;;;;;;;4970420;28;20295;-80
2021/06/07 11:55:33;;;;;;;1.42;0.95;;;;;;;;;;4970544;28;20692;-79
2021/06/07 11:58:11;;;;;;;1.13;0.90;;;;;;;;;;4958576;28;20262;-80
2021/06/07 12:00:40;;;;;;;1.30;0.90;;;;;;;;;;4963013;28;20293;-80
2021/06/07 12:03:08;;;;;;;1.38;0.90;;;;;;;;;;4966452;28;20194;-80
2021/06/07 12:05:34;;;;;;;1.13;1.00;;;;;;;;;;4963682;28;20707;-80
2021/06/07 12:08:05;;;;;;;1.48;0.80;;;;;;;;;;4963839;28;20337;-79
2021/06/07 12:10:32;;;;;;;1.45;0.90;;;;;;;;;;4963742;28;20290;-80
2021/06/07 12:13:14;;;;;;;1.00;0.90;;;;;;;;;;4961509;28;20278;-80
2021/06/07 12:15:41;;;;;;;2.03;1.00;;;;;;;;;;4959162;28;20205;-80
2021/06/07 12:18:08;;;;;;;1.65;1.00;;;;;;;;;;4972525;28;20250;-79
2021/06/07 12:20:35;;;;;;;1.40;0.77;;;;;;;;;;4972562;28;20199;-80
2021/06/07 12:23:02;;;;;;;0.95;0.85;;;;;;;;;;4966808;28;20649;-80
2021/06/07 12:25:43;;;;;;;1.25;1.00;;;;;;;;;;4969883;28;20222;-81
2021/06/07 12:28:20;;;;;;;1.45;0.80;;;;;;;;;;4953839;28;20300;-80
2021/06/07 12:30:48;;;;;;;0.90;0.88;;;;;;;;;;4956447;28;20202;-81
2021/06/07 12:33:14;;;;;;;2.20;0.90;;;;;;;;;;4971261;28;20619;-80
2021/06/07 12:35:41;;;;;;;1.40;0.95;;;;;;;;;;4967266;28;20195;-80
2021/06/07 12:38:09;;;;;;;1.40;1.00;;;;;;;;;;4969698;28;20712;-80
2021/06/07 12:40:39;;;;;;;1.98;1.00;;;;;;;;;;4964534;28;20206;-80
2021/06/07 12:43:16;;;;;;;0.95;0.85;;;;;;;;;;4970171;28;20261;-80
2021/06/07 12:45:43;;;;;;;1.42;1.00;;;;;;;;;;4974596;28;20230;-80
2021/06/07 12:48:17;;;;;;;2.38;0.90;;;;;;;;;;4982804;28;20267;-80
2021/06/07 12:50:46;;;;;;;0.70;0.70;;;;;;;;;;4969583;28;20256;-80
2021/06/07 12:53:13;;;;;;;2.00;0.88;;;;;;;;;;4984262;28;20235;-80
2021/06/07 12:55:42;;;;;;;2.33;1.00;;;;;;;;;;4980566;28;20252;-79
2021/06/07 12:58:10;;;;;;;1.75;1.00;;;;;;;;;;4979957;28;20814;-80
2021/06/07 13:00:38;;;;;;;0.90;0.80;;;;;;;;;;4966477;28;20286;-79
2021/06/07 13:03:16;;;;;;;1.77;0.90;;;;;;;;;;4975041;28;20226;-79
2021/06/07 13:05:43;;;;;;;1.85;0.88;;;;;;;;;;4977364;28;20264;-80
2021/06/07 13:08:14;;;;;;;2.45;1.02;;;;;;;;;;4965066;28;20253;-80
2021/06/07 13:10:43;;;;;;;1.27;0.90;;;;;;;;;;4961743;28;20237;-80
2021/06/07 13:13:17;;;;;;;1.00;0.80;;;;;;;;;;4982514;28;20202;-80
2021/06/07 13:15:44;;;;;;;1.95;0.88;;;;;;;;;;4970599;28;20285;-80
2021/06/07 13:18:11;;;;;;;1.00;0.80;;;;;;;;;;4966818;28;20249;-80
2021/06/07 13:20:37;;;;;;;2.22;1.02;;;;;;;;;;4966894;28;20233;-80
2021/06/07 13:23:04;;;;;;;1.38;0.82;;;;;;;;;;4963590;28;20242;-80
2021/06/07 13:25:32;;;;;;;2.83;1.27;;;;;;;;;;4978110;28;20289;-80
2021/06/07 13:28:17;;;;;;;0.98;0.80;;;;;;;;;;4957236;28;20564;-80
2021/06/07 13:30:45;;;;;;;1.35;0.90;;;;;;;;;;4967480;28;20308;-80
2021/06/07 13:33:27;;;;;;;1.42;0.70;;;;;;;;;;4977317;28;20281;-79
2021/06/07 13:36:00;;;;;;;0.90;0.80;;;;;;;;;;4963210;28;20635;-80
2021/06/07 13:38:31;;;;;;;1.20;0.80;;;;;;;;;;4965023;28;20281;-80
2021/06/07 13:41:07;;;;;;;0.80;0.80;;;;;;;;;;4958500;28;20218;-80
2021/06/07 13:43:33;;;;;;;1.77;1.00;;;;;;;;;;4962822;28;20260;-80
2021/06/07 13:46:02;;;;;;;0.93;0.70;;;;;;;;;;4967653;28;20293;-80
2021/06/07 13:48:34;;;;;;;1.50;1.02;;;;;;;;;;4961530;28;20263;-80
2021/06/07 13:51:01;;;;;;;2.97;0.88;;;;;;;;;;4958989;28;20257;-80
2021/06/07 13:53:32;;;;;;;1.45;0.82;;;;;;;;;;4965434;28;20211;-79
2021/06/07 13:56:00;;;;;;;1.23;0.90;;;;;;;;;;4964890;28;20680;-80
2021/06/07 13:58:36;;;;;;;0.95;0.80;;;;;;;;;;4966914;28;20234;-80
2021/06/07 14:01:05;;;;;;;1.80;0.95;;;;;;;;;;4967627;28;20231;-80
2021/06/07 14:03:32;;;;;;;1.48;0.80;;;;;;;;;;4963954;28;22283;-80
2021/06/07 14:06:00;;;;;;;1.25;0.90;;;;;;;;;;4957677;28;20226;-80
2021/06/07 14:08:28;;;;;;;1.15;0.90;;;;;;;;;;4962570;28;20281;-80
2021/06/07 14:10:55;;;;;;;2.20;0.98;;;;;;;;;;4971625;28;20256;-79
2021/06/07 14:13:23;;;;;;;1.30;1.00;;;;;;;;;;4965632;28;20298;-79
2021/06/07 14:15:50;;;;;;;2.15;0.90;;;;;;;;;;4965735;28;20724;-80
2021/06/07 14:18:19;;;;;;;0.95;0.85;;;;;;;;;;4962903;28;20294;-80
2021/06/07 14:20:47;;;;;;;1.98;0.90;;;;;;;;;;4966496;28;20669;-80
2021/06/07 14:26:03;;;;;;;1.40;0.80;;;;;;;;;;4958847;28;20264;-80
2021/06/07 14:28:30;;;;;;;2.25;0.80;;;;;;;;;;4965673;28;20210;-80
2021/06/07 14:30:56;;;;;;;1.08;0.98;;;;;;;;;;4965829;28;20751;-80
2021/06/07 14:33:25;;;;;;;0.80;0.60;;;;;;;;;;4967901;28;20242;-80
2021/06/07 14:35:52;;;;;;;1.88;0.98;;;;;;;;;;4965459;28;20230;-80
2021/06/07 14:38:18;;;;;;;1.67;0.90;;;;;;;;;;4965664;28;20234;-81
2021/06/07 14:40:45;;;;;;;1.25;0.80;;;;;;;;;;4956331;28;20721;-81
2021/06/07 14:43:14;;;;;;;0.82;0.75;;;;;;;;;;4967768;28;20307;-80
2021/06/07 14:45:42;;;;;;;1.00;0.90;;;;;;;;;;4965557;28;20245;-80
2021/06/07 14:48:09;;;;;;;0.95;0.73;;;;;;;;;;4963538;28;20309;-80
2021/06/07 14:50:37;;;;;;;1.95;0.95;;;;;;;;;;4970031;28;20252;-81
2021/06/07 14:53:04;;;;;;;2.10;1.02;;;;;;;;;;4954333;28;20199;-81
2021/06/07 14:55:31;;;;;;;1.58;0.90;;;;;;;;;;4954058;28;20933;-81